WMT411 LIMF-LATI
Flight info
| Callsign | WMT411 |
|---|---|
| Flight time | 1h 26m |
| Altitude | 37000 |
| Route | TESTO DCT ITCAP DCT MIVKI DCT BEROK DCT EDUGI DCT TIBRI DCT BIGLO DCT LASTI L607 PETAK |
| Aircraft | A321/M-SDE1E2E3FGIJ1J4RWXY/LB1 |
Departure
| Time | 2026-05-06 09:28 |
|---|---|
| Airport | Turin Airport (LIMF) |
Arrival
| Time | 2026-05-06 10:54 |
|---|---|
| Airport | Tirana International Airport Mother Teresa (LATI) |
| Time | Latitude | Longitude | Altitude | Speed | Heading |
|---|---|---|---|---|---|
| 2026-05-06 08:30 | 45.19616 | 7.64600 | 967 ft | 0 kts | 91° |
| 2026-05-06 08:44 | 45.19616 | 7.64599 | 967 ft | 0 kts | 91° |
| 2026-05-06 09:04 | 45.19616 | 7.64598 | 967 ft | 0 kts | 91° |
| 2026-05-06 09:24 | 45.19615 | 7.64619 | 964 ft | 6 kts | 95° |
| 2026-05-06 09:24 | 45.19563 | 7.64679 | 964 ft | 12 kts | 163° |
| 2026-05-06 09:24 | 45.19484 | 7.64683 | 965 ft | 10 kts | 182° |
| 2026-05-06 09:25 | 45.19433 | 7.64680 | 965 ft | 5 kts | 182° |
| 2026-05-06 09:25 | 45.19417 | 7.64679 | 966 ft | 1 kts | 183° |
| 2026-05-06 09:25 | 45.19399 | 7.64677 | 966 ft | 4 kts | 184° |
| 2026-05-06 09:25 | 45.19355 | 7.64672 | 966 ft | 9 kts | 185° |
| 2026-05-06 09:26 | 45.19272 | 7.64658 | 964 ft | 16 kts | 188° |
| 2026-05-06 09:26 | 45.19135 | 7.64654 | 956 ft | 21 kts | 179° |
| 2026-05-06 09:26 | 45.18992 | 7.64656 | 954 ft | 18 kts | 175° |
| 2026-05-06 09:26 | 45.18954 | 7.64734 | 953 ft | 9 kts | 92° |
| 2026-05-06 09:27 | 45.18979 | 7.64849 | 953 ft | 15 kts | 42° |
| 2026-05-06 09:27 | 45.19084 | 7.64894 | 959 ft | 23 kts | 6° |
| 2026-05-06 09:27 | 45.19452 | 7.64923 | 965 ft | 88 kts | 2° |
| 2026-05-06 09:27 | 45.20283 | 7.64977 | 984 ft | 147 kts | 2° |
| 2026-05-06 09:28 | 45.21392 | 7.65049 | 1448 ft | 162 kts | 4° |
| 2026-05-06 09:28 | 45.22531 | 7.65144 | 2196 ft | 165 kts | 3° |
| 2026-05-06 09:28 | 45.23717 | 7.65215 | 2647 ft | 180 kts | 2° |
| 2026-05-06 09:28 | 45.25056 | 7.65286 | 2956 ft | 205 kts | 2° |
| 2026-05-06 09:29 | 45.26492 | 7.65712 | 3411 ft | 223 kts | 32° |
| 2026-05-06 09:29 | 45.27527 | 7.67427 | 3787 ft | 244 kts | 71° |
| 2026-05-06 09:29 | 45.27646 | 7.69895 | 4210 ft | 261 kts | 100° |
| 2026-05-06 09:29 | 45.27164 | 7.72427 | 4922 ft | 270 kts | 109° |
| 2026-05-06 09:30 | 45.26500 | 7.74935 | 5799 ft | 273 kts | 113° |
| 2026-05-06 09:30 | 45.25813 | 7.77462 | 6651 ft | 276 kts | 112° |
| 2026-05-06 09:30 | 45.25107 | 7.80013 | 7468 ft | 280 kts | 119° |
| 2026-05-06 09:30 | 45.23996 | 7.82292 | 8275 ft | 283 kts | 130° |
| 2026-05-06 09:31 | 45.22800 | 7.84550 | 9147 ft | 289 kts | 129° |
| 2026-05-06 09:31 | 45.21614 | 7.86879 | 9973 ft | 294 kts | 128° |
| 2026-05-06 09:31 | 45.20391 | 7.89316 | 10362 ft | 315 kts | 128° |
| 2026-05-06 09:31 | 45.19082 | 7.91940 | 10658 ft | 335 kts | 128° |
| 2026-05-06 09:32 | 45.17735 | 7.94638 | 11255 ft | 343 kts | 129° |
| 2026-05-06 09:32 | 45.16140 | 7.97146 | 11955 ft | 343 kts | 141° |
| 2026-05-06 09:32 | 45.14164 | 7.99120 | 12686 ft | 343 kts | 154° |
| 2026-05-06 09:32 | 45.11997 | 8.00382 | 13394 ft | 343 kts | 167° |
| 2026-05-06 09:33 | 45.09668 | 8.01148 | 14072 ft | 344 kts | 170° |
| 2026-05-06 09:33 | 45.07326 | 8.01889 | 14796 ft | 346 kts | 170° |
| 2026-05-06 09:33 | 45.04968 | 8.02640 | 15497 ft | 348 kts | 170° |
| 2026-05-06 09:33 | 45.02598 | 8.03397 | 16203 ft | 351 kts | 170° |
| 2026-05-06 09:34 | 45.00210 | 8.04161 | 16905 ft | 353 kts | 170° |
| 2026-05-06 09:34 | 44.97810 | 8.04932 | 17602 ft | 354 kts | 170° |
| 2026-05-06 09:34 | 44.95410 | 8.05705 | 18348 ft | 354 kts | 170° |
| 2026-05-06 09:34 | 44.93003 | 8.06480 | 18968 ft | 356 kts | 171° |
| 2026-05-06 09:35 | 44.90583 | 8.07256 | 19558 ft | 357 kts | 172° |
| 2026-05-06 09:35 | 44.88149 | 8.08035 | 20136 ft | 360 kts | 172° |
| 2026-05-06 09:35 | 44.85741 | 8.09124 | 20726 ft | 370 kts | 162° |
| 2026-05-06 09:35 | 44.83493 | 8.10995 | 21301 ft | 383 kts | 149° |
| 2026-05-06 09:36 | 44.81557 | 8.13659 | 21858 ft | 398 kts | 136° |
| 2026-05-06 09:36 | 44.80037 | 8.17008 | 22390 ft | 411 kts | 127° |
| 2026-05-06 09:36 | 44.78618 | 8.20526 | 22930 ft | 415 kts | 128° |
| 2026-05-06 09:36 | 44.77181 | 8.24070 | 23430 ft | 419 kts | 128° |
| 2026-05-06 09:37 | 44.75727 | 8.27637 | 23858 ft | 422 kts | 128° |
| 2026-05-06 09:37 | 44.74262 | 8.31223 | 24308 ft | 424 kts | 129° |
| 2026-05-06 09:37 | 44.72789 | 8.34823 | 24744 ft | 425 kts | 129° |
| 2026-05-06 09:37 | 44.71311 | 8.38430 | 25145 ft | 427 kts | 129° |
| 2026-05-06 09:38 | 44.69822 | 8.42053 | 25584 ft | 429 kts | 129° |
| 2026-05-06 09:38 | 44.68327 | 8.45690 | 26000 ft | 431 kts | 129° |
| 2026-05-06 09:38 | 44.66818 | 8.49353 | 26396 ft | 434 kts | 129° |
| 2026-05-06 09:38 | 44.65299 | 8.53036 | 26788 ft | 437 kts | 129° |
| 2026-05-06 09:39 | 44.63771 | 8.56736 | 27153 ft | 439 kts | 129° |
| 2026-05-06 09:39 | 44.62230 | 8.60452 | 27546 ft | 442 kts | 129° |
| 2026-05-06 09:39 | 44.60682 | 8.64185 | 27964 ft | 444 kts | 129° |
| 2026-05-06 09:39 | 44.59129 | 8.67935 | 28367 ft | 445 kts | 129° |
| 2026-05-06 09:40 | 44.57572 | 8.71705 | 28742 ft | 448 kts | 129° |
| 2026-05-06 09:40 | 44.56007 | 8.75500 | 29083 ft | 451 kts | 129° |
| 2026-05-06 09:40 | 44.52849 | 8.83156 | 29832 ft | 456 kts | 129° |
| 2026-05-06 09:41 | 44.51254 | 8.87012 | 30162 ft | 458 kts | 129° |
| 2026-05-06 09:41 | 44.49653 | 8.90877 | 30524 ft | 460 kts | 129° |
| 2026-05-06 09:41 | 44.48040 | 8.94764 | 30850 ft | 462 kts | 129° |
| 2026-05-06 09:41 | 44.46417 | 8.98661 | 31166 ft | 464 kts | 130° |
| 2026-05-06 09:42 | 44.44787 | 9.02568 | 31544 ft | 465 kts | 130° |
| 2026-05-06 09:42 | 44.43198 | 9.06505 | 31910 ft | 468 kts | 125° |
| 2026-05-06 09:42 | 44.41972 | 9.10715 | 32280 ft | 479 kts | 116° |
| 2026-05-06 09:42 | 44.41072 | 9.15213 | 32773 ft | 480 kts | 114° |
| 2026-05-06 09:43 | 44.40188 | 9.19703 | 33258 ft | 477 kts | 114° |
| 2026-05-06 09:43 | 44.39299 | 9.24161 | 33708 ft | 475 kts | 114° |
| 2026-05-06 09:43 | 44.38405 | 9.28603 | 34112 ft | 474 kts | 114° |
| 2026-05-06 09:43 | 44.37512 | 9.33030 | 34477 ft | 473 kts | 114° |
| 2026-05-06 09:44 | 44.36620 | 9.37454 | 34838 ft | 472 kts | 114° |
| 2026-05-06 09:44 | 44.35730 | 9.41871 | 35186 ft | 472 kts | 114° |
| 2026-05-06 09:44 | 44.34841 | 9.46286 | 35507 ft | 472 kts | 114° |
| 2026-05-06 09:44 | 44.33948 | 9.50711 | 35752 ft | 474 kts | 114° |
| 2026-05-06 09:45 | 44.33051 | 9.55148 | 36019 ft | 475 kts | 113° |
| 2026-05-06 09:45 | 44.32153 | 9.59594 | 36294 ft | 476 kts | 113° |
| 2026-05-06 09:45 | 44.31252 | 9.64036 | 36588 ft | 476 kts | 113° |
| 2026-05-06 09:45 | 44.30347 | 9.68476 | 36848 ft | 476 kts | 113° |
| 2026-05-06 09:46 | 44.28835 | 9.75855 | 36913 ft | 475 kts | 113° |
| 2026-05-06 09:46 | 44.27025 | 9.84697 | 36893 ft | 474 kts | 113° |
| 2026-05-06 09:47 | 44.25209 | 9.93566 | 36916 ft | 476 kts | 112° |
| 2026-05-06 09:47 | 44.23372 | 10.02456 | 36920 ft | 477 kts | 112° |
| 2026-05-06 09:48 | 44.21524 | 10.11346 | 36925 ft | 478 kts | 112° |
| 2026-05-06 09:48 | 44.19670 | 10.20248 | 36937 ft | 479 kts | 112° |
| 2026-05-06 09:49 | 44.17809 | 10.29131 | 36945 ft | 477 kts | 112° |
| 2026-05-06 09:49 | 44.16295 | 10.38152 | 36971 ft | 484 kts | 101° |
| 2026-05-06 09:50 | 44.15553 | 10.47449 | 36979 ft | 483 kts | 102° |
| 2026-05-06 09:50 | 44.14792 | 10.56740 | 36969 ft | 482 kts | 102° |
| 2026-05-06 09:51 | 44.14022 | 10.65998 | 36968 ft | 481 kts | 102° |
| 2026-05-06 09:51 | 44.13249 | 10.75220 | 36979 ft | 480 kts | 102° |
| 2026-05-06 09:52 | 44.12467 | 10.84420 | 36969 ft | 477 kts | 102° |
| 2026-05-06 09:52 | 44.11679 | 10.93594 | 36974 ft | 478 kts | 102° |
| 2026-05-06 09:53 | 44.10887 | 11.02773 | 36964 ft | 477 kts | 102° |
| 2026-05-06 09:53 | 44.10086 | 11.11942 | 36966 ft | 477 kts | 102° |
| 2026-05-06 09:54 | 44.09278 | 11.21100 | 36952 ft | 476 kts | 102° |
| 2026-05-06 09:54 | 44.08462 | 11.30243 | 36955 ft | 477 kts | 102° |
| 2026-05-06 09:55 | 44.07647 | 11.39330 | 36961 ft | 476 kts | 102° |
| 2026-05-06 09:55 | 44.06828 | 11.48449 | 36965 ft | 475 kts | 102° |
| 2026-05-06 09:56 | 44.06001 | 11.57556 | 36964 ft | 474 kts | 103° |
| 2026-05-06 09:56 | 44.05156 | 11.66641 | 36960 ft | 473 kts | 103° |
| 2026-05-06 09:57 | 44.04315 | 11.75711 | 36941 ft | 473 kts | 103° |
| 2026-05-06 09:57 | 44.03461 | 11.84793 | 36941 ft | 474 kts | 103° |
| 2026-05-06 09:58 | 44.02599 | 11.93868 | 36947 ft | 474 kts | 103° |
| 2026-05-06 09:58 | 44.01731 | 12.02956 | 36948 ft | 475 kts | 103° |
| 2026-05-06 09:59 | 44.00857 | 12.12044 | 36930 ft | 475 kts | 103° |
| 2026-05-06 09:59 | 43.99971 | 12.21143 | 36947 ft | 475 kts | 103° |
| 2026-05-06 10:00 | 43.99088 | 12.30242 | 36951 ft | 476 kts | 103° |
| 2026-05-06 10:00 | 43.98188 | 12.39351 | 36950 ft | 476 kts | 103° |
| 2026-05-06 10:01 | 43.97272 | 12.48452 | 36948 ft | 476 kts | 103° |
| 2026-05-06 10:01 | 43.96359 | 12.57546 | 36964 ft | 475 kts | 103° |
| 2026-05-06 10:02 | 43.95445 | 12.66624 | 36967 ft | 475 kts | 103° |
| 2026-05-06 10:02 | 43.94521 | 12.75687 | 36967 ft | 474 kts | 103° |
| 2026-05-06 10:03 | 43.93598 | 12.84748 | 36952 ft | 474 kts | 103° |
| 2026-05-06 10:03 | 43.92660 | 12.93798 | 36958 ft | 474 kts | 103° |
| 2026-05-06 10:04 | 43.91707 | 13.02848 | 36961 ft | 474 kts | 103° |
| 2026-05-06 10:04 | 43.90753 | 13.11829 | 36971 ft | 474 kts | 103° |
| 2026-05-06 10:05 | 43.89795 | 13.20874 | 36963 ft | 474 kts | 103° |
| 2026-05-06 10:05 | 43.88829 | 13.29929 | 36982 ft | 474 kts | 103° |
| 2026-05-06 10:06 | 43.87852 | 13.38973 | 36986 ft | 475 kts | 103° |
| 2026-05-06 10:06 | 43.86866 | 13.48021 | 36990 ft | 475 kts | 103° |
| 2026-05-06 10:07 | 43.85876 | 13.57056 | 36967 ft | 474 kts | 103° |
| 2026-05-06 10:07 | 43.84885 | 13.66093 | 36978 ft | 475 kts | 103° |
| 2026-05-06 10:08 | 43.83884 | 13.75130 | 36977 ft | 475 kts | 103° |
| 2026-05-06 10:08 | 43.82867 | 13.84161 | 36984 ft | 475 kts | 103° |
| 2026-05-06 10:09 | 43.81845 | 13.93210 | 36979 ft | 475 kts | 103° |
| 2026-05-06 10:09 | 43.80820 | 14.02247 | 36985 ft | 475 kts | 103° |
| 2026-05-06 10:10 | 43.79779 | 14.11283 | 36994 ft | 475 kts | 103° |
| 2026-05-06 10:10 | 43.78289 | 14.20061 | 36995 ft | 467 kts | 117° |
| 2026-05-06 10:11 | 43.75867 | 14.28366 | 36985 ft | 465 kts | 117° |
| 2026-05-06 10:11 | 43.73453 | 14.36668 | 37002 ft | 465 kts | 117° |
| 2026-05-06 10:12 | 43.71034 | 14.44960 | 37003 ft | 465 kts | 117° |
| 2026-05-06 10:12 | 43.68610 | 14.53241 | 37009 ft | 465 kts | 117° |
| 2026-05-06 10:13 | 43.66185 | 14.61509 | 37004 ft | 464 kts | 117° |
| 2026-05-06 10:13 | 43.63757 | 14.69761 | 37008 ft | 464 kts | 117° |
| 2026-05-06 10:14 | 43.61319 | 14.77995 | 37010 ft | 464 kts | 117° |
| 2026-05-06 10:14 | 43.58872 | 14.86226 | 37011 ft | 464 kts | 117° |
| 2026-05-06 10:15 | 43.56419 | 14.94453 | 37000 ft | 464 kts | 117° |
| 2026-05-06 10:15 | 43.53970 | 15.02669 | 37011 ft | 463 kts | 117° |
| 2026-05-06 10:16 | 43.51523 | 15.10875 | 37016 ft | 463 kts | 117° |
| 2026-05-06 10:16 | 43.49060 | 15.19062 | 37016 ft | 462 kts | 117° |
| 2026-05-06 10:17 | 43.46587 | 15.27238 | 37019 ft | 462 kts | 117° |
| 2026-05-06 10:17 | 43.44115 | 15.35400 | 37003 ft | 462 kts | 117° |
| 2026-05-06 10:18 | 43.41637 | 15.43564 | 37011 ft | 462 kts | 117° |
| 2026-05-06 10:18 | 43.39175 | 15.51658 | 37018 ft | 462 kts | 117° |
| 2026-05-06 10:19 | 43.36691 | 15.59813 | 37020 ft | 462 kts | 117° |
| 2026-05-06 10:19 | 43.34197 | 15.67953 | 37007 ft | 462 kts | 117° |
| 2026-05-06 10:20 | 43.31691 | 15.76088 | 37003 ft | 462 kts | 116° |
| 2026-05-06 10:20 | 43.29193 | 15.84221 | 37018 ft | 462 kts | 116° |
| 2026-05-06 10:21 | 43.26676 | 15.92346 | 37024 ft | 462 kts | 117° |
| 2026-05-06 10:21 | 43.24195 | 16.00336 | 37020 ft | 462 kts | 116° |
| 2026-05-06 10:22 | 43.21734 | 16.08263 | 37019 ft | 470 kts | 116° |
| 2026-05-06 10:22 | 43.19127 | 16.16603 | 37020 ft | 480 kts | 116° |
| 2026-05-06 10:23 | 43.16491 | 16.25022 | 37032 ft | 481 kts | 116° |
| 2026-05-06 10:23 | 43.13855 | 16.33453 | 37042 ft | 482 kts | 116° |
| 2026-05-06 10:24 | 43.11198 | 16.41877 | 37053 ft | 482 kts | 116° |
| 2026-05-06 10:24 | 43.08522 | 16.50302 | 37073 ft | 483 kts | 116° |
| 2026-05-06 10:25 | 43.05849 | 16.58735 | 37071 ft | 484 kts | 116° |
| 2026-05-06 10:25 | 43.03173 | 16.67164 | 37076 ft | 483 kts | 116° |
| 2026-05-06 10:26 | 43.00508 | 16.75529 | 37062 ft | 484 kts | 116° |
| 2026-05-06 10:26 | 42.97810 | 16.83951 | 37068 ft | 484 kts | 116° |
| 2026-05-06 10:27 | 42.95111 | 16.92375 | 37069 ft | 484 kts | 116° |
| 2026-05-06 10:27 | 42.92401 | 17.00798 | 37074 ft | 485 kts | 117° |
| 2026-05-06 10:28 | 42.89682 | 17.09207 | 37077 ft | 485 kts | 116° |
| 2026-05-06 10:28 | 42.86955 | 17.17616 | 37082 ft | 485 kts | 116° |
| 2026-05-06 10:29 | 42.84217 | 17.26030 | 37090 ft | 485 kts | 116° |
| 2026-05-06 10:29 | 42.81480 | 17.34433 | 37094 ft | 486 kts | 116° |
| 2026-05-06 10:30 | 42.78731 | 17.42837 | 37086 ft | 486 kts | 116° |
| 2026-05-06 10:30 | 42.76004 | 17.51137 | 37080 ft | 470 kts | 117° |
| 2026-05-06 10:31 | 42.73350 | 17.59195 | 37081 ft | 465 kts | 117° |
| 2026-05-06 10:31 | 42.70700 | 17.67221 | 37089 ft | 465 kts | 117° |
| 2026-05-06 10:32 | 42.68045 | 17.75225 | 37081 ft | 465 kts | 116° |
| 2026-05-06 10:32 | 42.65373 | 17.83248 | 37086 ft | 468 kts | 116° |
| 2026-05-06 10:33 | 42.64026 | 17.87296 | 36339 ft | 475 kts | 117° |
| 2026-05-06 10:33 | 42.62652 | 17.91416 | 35382 ft | 482 kts | 117° |
| 2026-05-06 10:33 | 42.61262 | 17.95575 | 34645 ft | 484 kts | 117° |
| 2026-05-06 10:33 | 42.59873 | 17.99735 | 33986 ft | 484 kts | 117° |
| 2026-05-06 10:34 | 42.58483 | 18.03896 | 33225 ft | 485 kts | 117° |
| 2026-05-06 10:34 | 42.57098 | 18.08037 | 32725 ft | 480 kts | 117° |
| 2026-05-06 10:34 | 42.55720 | 18.12142 | 32176 ft | 477 kts | 117° |
| 2026-05-06 10:34 | 42.54811 | 18.14846 | 31822 ft | 475 kts | 117° |
| 2026-05-06 10:35 | 42.53444 | 18.18902 | 31276 ft | 471 kts | 117° |
| 2026-05-06 10:35 | 42.52083 | 18.22932 | 30743 ft | 468 kts | 117° |
| 2026-05-06 10:35 | 42.50730 | 18.26931 | 30206 ft | 465 kts | 117° |
| 2026-05-06 10:35 | 42.48955 | 18.32177 | 29480 ft | 459 kts | 117° |
| 2026-05-06 10:36 | 42.48062 | 18.34821 | 29135 ft | 456 kts | 117° |
| 2026-05-06 10:36 | 42.46323 | 18.39955 | 28468 ft | 450 kts | 117° |
| 2026-05-06 10:36 | 42.45444 | 18.42547 | 28146 ft | 446 kts | 117° |
| 2026-05-06 10:36 | 42.44152 | 18.46347 | 27662 ft | 441 kts | 117° |
| 2026-05-06 10:37 | 42.42872 | 18.50097 | 27203 ft | 437 kts | 117° |
| 2026-05-06 10:37 | 42.41598 | 18.53813 | 26769 ft | 433 kts | 118° |
| 2026-05-06 10:37 | 42.40089 | 18.57282 | 26337 ft | 425 kts | 128° |
| 2026-05-06 10:37 | 42.38387 | 18.60528 | 25913 ft | 421 kts | 128° |
| 2026-05-06 10:38 | 42.36698 | 18.63751 | 25484 ft | 419 kts | 128° |
| 2026-05-06 10:38 | 42.35022 | 18.66959 | 25068 ft | 417 kts | 128° |
| 2026-05-06 10:38 | 42.33273 | 18.70054 | 24622 ft | 412 kts | 136° |
| 2026-05-06 10:38 | 42.31188 | 18.72652 | 24194 ft | 405 kts | 147° |
| 2026-05-06 10:39 | 42.28832 | 18.74662 | 23766 ft | 398 kts | 156° |
| 2026-05-06 10:39 | 42.26402 | 18.76446 | 23252 ft | 396 kts | 155° |
| 2026-05-06 10:39 | 42.23995 | 18.78220 | 22827 ft | 392 kts | 155° |
| 2026-05-06 10:39 | 42.21613 | 18.79981 | 22383 ft | 389 kts | 155° |
| 2026-05-06 10:40 | 42.19249 | 18.81727 | 21940 ft | 385 kts | 155° |
| 2026-05-06 10:40 | 42.16908 | 18.83456 | 21496 ft | 382 kts | 155° |
| 2026-05-06 10:40 | 42.14587 | 18.85168 | 21055 ft | 378 kts | 155° |
| 2026-05-06 10:40 | 42.12287 | 18.86862 | 20604 ft | 376 kts | 155° |
| 2026-05-06 10:41 | 42.10059 | 18.88700 | 20149 ft | 376 kts | 146° |
| 2026-05-06 10:41 | 42.08111 | 18.91048 | 19700 ft | 376 kts | 138° |
| 2026-05-06 10:41 | 42.06252 | 18.93515 | 19254 ft | 374 kts | 138° |
| 2026-05-06 10:41 | 42.04399 | 18.95967 | 18796 ft | 373 kts | 138° |
| 2026-05-06 10:42 | 42.02579 | 18.98371 | 18327 ft | 371 kts | 138° |
| 2026-05-06 10:42 | 42.00743 | 19.00795 | 17853 ft | 368 kts | 138° |
| 2026-05-06 10:42 | 41.98926 | 19.03194 | 17416 ft | 364 kts | 138° |
| 2026-05-06 10:42 | 41.97130 | 19.05562 | 16955 ft | 360 kts | 138° |
| 2026-05-06 10:43 | 41.95347 | 19.07906 | 16524 ft | 357 kts | 138° |
| 2026-05-06 10:43 | 41.93582 | 19.10228 | 16091 ft | 354 kts | 138° |
| 2026-05-06 10:43 | 41.91834 | 19.12529 | 15654 ft | 350 kts | 138° |
| 2026-05-06 10:44 | 41.88387 | 19.17068 | 14807 ft | 344 kts | 137° |
| 2026-05-06 10:44 | 41.86685 | 19.19313 | 14393 ft | 341 kts | 137° |
| 2026-05-06 10:44 | 41.85001 | 19.21536 | 13977 ft | 338 kts | 137° |
| 2026-05-06 10:44 | 41.83331 | 19.23741 | 13533 ft | 335 kts | 137° |
| 2026-05-06 10:45 | 41.81679 | 19.25917 | 13121 ft | 331 kts | 137° |
| 2026-05-06 10:45 | 41.80047 | 19.28061 | 12721 ft | 327 kts | 137° |
| 2026-05-06 10:45 | 41.78432 | 19.30183 | 12327 ft | 323 kts | 137° |
| 2026-05-06 10:45 | 41.76900 | 19.32362 | 11867 ft | 322 kts | 131° |
| 2026-05-06 10:46 | 41.75434 | 19.34698 | 11094 ft | 332 kts | 131° |
| 2026-05-06 10:46 | 41.73945 | 19.37078 | 10562 ft | 332 kts | 131° |
| 2026-05-06 10:46 | 41.72483 | 19.39421 | 10369 ft | 321 kts | 131° |
| 2026-05-06 10:46 | 41.71080 | 19.41668 | 10246 ft | 308 kts | 131° |
| 2026-05-06 10:47 | 41.69726 | 19.43832 | 10043 ft | 300 kts | 131° |
| 2026-05-06 10:47 | 41.68394 | 19.45953 | 9686 ft | 296 kts | 132° |
| 2026-05-06 10:47 | 41.67071 | 19.48057 | 9318 ft | 294 kts | 132° |
| 2026-05-06 10:47 | 41.65765 | 19.50134 | 8954 ft | 291 kts | 132° |
| 2026-05-06 10:48 | 41.64610 | 19.52339 | 8583 ft | 291 kts | 118° |
| 2026-05-06 10:48 | 41.63994 | 19.54906 | 8186 ft | 291 kts | 100° |
| 2026-05-06 10:48 | 41.63973 | 19.57624 | 7456 ft | 304 kts | 85° |
| 2026-05-06 10:48 | 41.64205 | 19.60497 | 6662 ft | 317 kts | 85° |
| 2026-05-06 10:49 | 41.64440 | 19.63483 | 5792 ft | 329 kts | 85° |
| 2026-05-06 10:49 | 41.64475 | 19.66301 | 4997 ft | 330 kts | 103° |
| 2026-05-06 10:49 | 41.63555 | 19.68908 | 4575 ft | 296 kts | 133° |
| 2026-05-06 10:49 | 41.61940 | 19.70391 | 3896 ft | 276 kts | 166° |
| 2026-05-06 10:50 | 41.60128 | 19.70362 | 3513 ft | 254 kts | 198° |
| 2026-05-06 10:50 | 41.58522 | 19.69593 | 3197 ft | 236 kts | 190° |
| 2026-05-06 10:50 | 41.56975 | 19.69765 | 2911 ft | 217 kts | 163° |
| 2026-05-06 10:50 | 41.55529 | 19.70184 | 2633 ft | 211 kts | 173° |
| 2026-05-06 10:51 | 41.54118 | 19.70381 | 2377 ft | 199 kts | 174° |
| 2026-05-06 10:51 | 41.52777 | 19.70554 | 2128 ft | 188 kts | 174° |
| 2026-05-06 10:51 | 41.51522 | 19.70720 | 1856 ft | 175 kts | 174° |
| 2026-05-06 10:51 | 41.50368 | 19.70873 | 1635 ft | 160 kts | 174° |
| 2026-05-06 10:52 | 41.49323 | 19.71012 | 1446 ft | 144 kts | 173° |
| 2026-05-06 10:52 | 41.48349 | 19.71141 | 1260 ft | 138 kts | 173° |
| 2026-05-06 10:52 | 41.47403 | 19.71267 | 1073 ft | 136 kts | 174° |
| 2026-05-06 10:52 | 41.46460 | 19.71393 | 891 ft | 137 kts | 174° |
| 2026-05-06 10:53 | 41.45505 | 19.71520 | 715 ft | 139 kts | 176° |
| 2026-05-06 10:53 | 41.44536 | 19.71649 | 526 ft | 141 kts | 175° |
| 2026-05-06 10:53 | 41.43565 | 19.71777 | 358 ft | 140 kts | 176° |
| 2026-05-06 10:53 | 41.42600 | 19.71909 | 154 ft | 139 kts | 177° |
| 2026-05-06 10:54 | 41.41725 | 19.72012 | 127 ft | 111 kts | 175° |
| 2026-05-06 10:54 | 41.41127 | 19.72094 | 131 ft | 64 kts | 174° |
| 2026-05-06 10:54 | 41.40822 | 19.72142 | 133 ft | 25 kts | 172° |
| 2026-05-06 10:54 | 41.40694 | 19.72135 | 134 ft | 12 kts | 219° |
| 2026-05-06 10:55 | 41.40665 | 19.72023 | 132 ft | 15 kts | 256° |
| 2026-05-06 10:55 | 41.40642 | 19.71894 | 132 ft | 6 kts | 257° |
| 2026-05-06 10:55 | 41.40639 | 19.71871 | 132 ft | 7 kts | 261° |
| 2026-05-06 10:55 | 41.40679 | 19.71777 | 132 ft | 17 kts | 334° |
| 2026-05-06 10:56 | 41.40801 | 19.71749 | 132 ft | 19 kts | 351° |
| 2026-05-06 10:56 | 41.40937 | 19.71716 | 126 ft | 21 kts | 350° |
| 2026-05-06 10:56 | 41.41090 | 19.71692 | 129 ft | 23 kts | 354° |
| 2026-05-06 10:56 | 41.41259 | 19.71670 | 127 ft | 25 kts | 354° |
| 2026-05-06 10:57 | 41.41439 | 19.71648 | 126 ft | 26 kts | 355° |
| 2026-05-06 10:57 | 41.41621 | 19.71625 | 123 ft | 25 kts | 354° |
| 2026-05-06 10:57 | 41.41794 | 19.71603 | 122 ft | 25 kts | 356° |
| 2026-05-06 10:57 | 41.41935 | 19.71579 | 123 ft | 13 kts | 334° |
| 2026-05-06 10:58 | 41.41948 | 19.71525 | 122 ft | 0 kts | 268° |